Time,TemperatureF,DewpointF,PressureIn,WindDirection,WindDirectionDegrees,WindSpeedMPH,WindSpeedGustMPH,Humidity,HourlyPrecipIn,Conditions,Clouds,dailyrainin,SoftwareType,DateUTC
2013-07-26 00:02:00,69.6,65.9,30.01,NNE,32,0.0,2.2,88,0.00,,,0.00,VWS V13.01,2013-07-26 05:02:00,
2013-07-26 00:07:00,69.6,65.9,30.01,NNE,32,0.0,0.0,88,0.00,,,0.00,VWS V13.01,2013-07-26 05:07:00,
2013-07-26 00:12:00,69.4,65.7,30.01,NNE,24,0.0,0.0,88,0.00,,,0.00,VWS V13.01,2013-07-26 05:12:00,
2013-07-26 00:17:00,69.4,65.1,30.01,NNE,24,0.0,0.0,86,0.00,,,0.00,VWS V13.01,2013-07-26 05:17:00,
2013-07-26 00:22:00,69.4,65.1,30.01,NNE,31,2.7,2.7,86,0.00,,,0.00,VWS V13.01,2013-07-26 05:22:00,
2013-07-26 00:27:00,69.6,64.9,30.01,NNE,32,0.0,0.0,85,0.00,,,0.00,VWS V13.01,2013-07-26 05:27:00,
2013-07-26 00:32:00,69.6,65.2,30.01,NE,44,3.6,4.0,86,0.00,,,0.00,VWS V13.01,2013-07-26 05:32:00,
2013-07-26 00:37:00,69.6,64.9,30.01,NE,44,2.2,2.2,85,0.00,,,0.00,VWS V13.01,2013-07-26 05:37:00,
2013-07-26 00:42:00,69.8,64.4,30.01,NNE,25,0.0,0.0,83,0.00,,,0.00,VWS V13.01,2013-07-26 05:42:00,
2013-07-26 00:47:00,70.0,64.6,30.01,NNE,25,0.0,0.0,83,0.00,,,0.00,VWS V13.01,2013-07-26 05:47:00,
2013-07-26 00:52:00,70.0,63.9,30.01,NNE,25,0.0,0.0,81,0.00,,,0.00,VWS V13.01,2013-07-26 05:52:00,
2013-07-26 00:57:00,70.0,63.9,30.01,NNE,33,0.0,0.0,81,0.00,,,0.00,VWS V13.01,2013-07-26 05:57:00,
2013-07-26 01:02:00,70.0,63.5,30.01,NNE,33,0.0,0.0,80,0.00,,,0.00,VWS V13.01,2013-07-26 06:02:00,
2013-07-26 01:07:00,70.1,63.0,30.01,NE,41,2.7,3.1,78,0.00,,,0.00,VWS V13.01,2013-07-26 06:07:00,
2013-07-26 01:12:00,70.3,63.5,30.01,NE,41,0.0,0.0,79,0.00,,,0.00,VWS V13.01,2013-07-26 06:12:00,
2013-07-26 01:17:00,70.1,62.2,30.01,NE,40,0.0,0.0,76,0.00,,,0.00,VWS V13.01,2013-07-26 06:17:00,
2013-07-26 01:22:00,70.3,62.0,30.01,NNE,25,3.1,3.1,75,0.00,,,0.00,VWS V13.01,2013-07-26 06:22:00,
2013-07-26 01:27:00,70.5,61.8,30.01,NNE,33,2.7,3.1,74,0.00,,,0.00,VWS V13.01,2013-07-26 06:27:00,
2013-07-26 01:32:00,70.7,62.0,30.01,NNE,27,2.2,2.2,74,0.00,,,0.00,VWS V13.01,2013-07-26 06:32:00,
2013-07-26 01:37:00,70.9,62.2,30.01,NNE,27,2.7,2.7,74,0.00,,,0.00,VWS V13.01,2013-07-26 06:37:00,
2013-07-26 01:42:00,70.7,62.0,30.01,NNE,27,2.7,2.7,74,0.00,,,0.00,VWS V13.01,2013-07-26 06:42:00,
2013-07-26 01:47:00,70.7,62.0,30.01,NNE,30,3.1,3.6,74,0.00,,,0.00,VWS V13.01,2013-07-26 06:47:00,
2013-07-26 01:52:00,70.5,61.4,30.01,NE,44,0.0,3.1,73,0.00,,,0.00,VWS V13.01,2013-07-26 06:52:00,
2013-07-26 01:57:00,70.7,62.0,30.01,NE,41,2.7,3.1,74,0.00,,,0.00,VWS V13.01,2013-07-26 06:57:00,
2013-07-26 02:02:00,70.5,61.8,30.01,NE,41,0.0,0.0,74,0.00,,,0.00,VWS V13.01,2013-07-26 07:02:00,
2013-07-26 02:07:00,70.5,61.8,30.01,NE,41,0.0,0.0,74,0.00,,,0.00,VWS V13.01,2013-07-26 07:07:00,
2013-07-26 02:12:00,70.3,61.7,30.01,NE,38,0.0,0.0,74,0.00,,,0.00,VWS V13.01,2013-07-26 07:12:00,
2013-07-26 02:17:00,70.3,61.7,30.01,NE,38,0.0,0.0,74,0.00,,,0.00,VWS V13.01,2013-07-26 07:17:00,
2013-07-26 02:22:00,70.1,61.9,30.01,NE,38,0.0,0.0,75,0.00,,,0.00,VWS V13.01,2013-07-26 07:22:00,
2013-07-26 02:27:00,70.1,61.9,30.01,NE,38,0.0,0.0,75,0.00,,,0.00,VWS V13.01,2013-07-26 07:27:00,
2013-07-26 02:32:00,70.0,61.7,30.01,NE,48,0.0,0.0,75,0.00,,,0.00,VWS V13.01,2013-07-26 07:32:00,
2013-07-26 02:37:00,70.0,61.7,30.01,NE,48,0.0,0.0,75,0.00,,,0.00,VWS V13.01,2013-07-26 07:37:00,
2013-07-26 02:42:00,70.0,61.7,30.01,NE,48,0.0,0.0,75,0.00,,,0.00,VWS V13.01,2013-07-26 07:42:00,
2013-07-26 02:47:00,69.8,61.9,30.01,ENE,64,0.0,0.0,76,0.00,,,0.00,VWS V13.01,2013-07-26 07:47:00,
2013-07-26 02:52:00,69.8,62.2,30.01,East,93,0.0,0.0,77,0.00,,,0.00,VWS V13.01,2013-07-26 07:52:00,
2013-07-26 02:57:00,69.6,62.4,30.01,NE,50,0.0,0.0,78,0.00,,,0.00,VWS V13.01,2013-07-26 07:57:00,
2013-07-26 03:02:00,69.4,63.0,29.98,NE,50,0.0,0.0,80,0.00,,,0.00,VWS V13.01,2013-07-26 08:02:00,
2013-07-26 03:07:00,69.4,63.0,29.98,NE,50,0.0,0.0,80,0.00,,,0.00,VWS V13.01,2013-07-26 08:07:00,
2013-07-26 03:12:00,69.4,63.0,29.98,NE,36,2.7,2.7,80,0.00,,,0.00,VWS V13.01,2013-07-26 08:12:00,
2013-07-26 03:17:00,69.4,63.0,29.98,NE,47,2.7,2.7,80,0.00,,,0.00,VWS V13.01,2013-07-26 08:17:00,
2013-07-26 03:22:00,69.4,63.0,29.98,NE,38,0.0,2.7,80,0.00,,,0.00,VWS V13.01,2013-07-26 08:22:00,
2013-07-26 03:27:00,69.4,62.6,29.98,ENE,66,0.0,2.7,79,0.00,,,0.00,VWS V13.01,2013-07-26 08:27:00,
2013-07-26 03:32:00,69.4,62.6,29.98,NE,49,0.0,0.0,79,0.00,,,0.00,VWS V13.01,2013-07-26 08:32:00,
2013-07-26 03:37:00,69.4,62.6,29.98,NE,49,0.0,0.0,79,0.00,,,0.00,VWS V13.01,2013-07-26 08:37:00,
2013-07-26 03:42:00,69.4,62.6,29.98,NE,40,0.0,0.0,79,0.00,,,0.00,VWS V13.01,2013-07-26 08:42:00,
2013-07-26 03:47:00,69.4,62.6,30.01,NE,48,2.7,3.1,79,0.00,,,0.00,VWS V13.01,2013-07-26 08:47:00,
2013-07-26 03:52:00,69.2,62.5,30.01,NE,55,0.0,0.0,79,0.00,,,0.00,VWS V13.01,2013-07-26 08:52:00,
2013-07-26 03:57:00,69.4,62.6,30.01,NE,50,3.6,3.6,79,0.00,,,0.00,VWS V13.01,2013-07-26 08:57:00,
2013-07-26 04:02:00,69.4,62.3,29.98,ENE,66,4.0,4.0,78,0.00,,,0.00,VWS V13.01,2013-07-26 09:02:00,
2013-07-26 04:07:00,69.4,62.3,29.98,ENE,63,0.0,0.0,78,0.00,,,0.00,VWS V13.01,2013-07-26 09:07:00,
2013-07-26 04:12:00,69.4,61.9,29.98,ENE,62,0.0,0.0,77,0.00,,,0.00,VWS V13.01,2013-07-26 09:12:00,
2013-07-26 04:17:00,69.6,61.7,29.98,NE,52,2.7,3.1,76,0.00,,,0.00,VWS V13.01,2013-07-26 09:17:00,
2013-07-26 04:22:00,69.6,61.7,29.98,NE,52,4.0,4.0,76,0.00,,,0.00,VWS V13.01,2013-07-26 09:22:00,
2013-07-26 04:27:00,69.6,62.1,29.98,NE,41,2.7,3.1,77,0.00,,,0.00,VWS V13.01,2013-07-26 09:27:00,
2013-07-26 04:32:00,69.6,62.1,30.01,NE,40,3.1,3.1,77,0.00,,,0.00,VWS V13.01,2013-07-26 09:32:00,
2013-07-26 04:37:00,69.6,61.7,30.01,NE,44,2.7,2.7,76,0.00,,,0.00,VWS V13.01,2013-07-26 09:37:00,
2013-07-26 04:42:00,69.6,61.7,30.01,NE,40,3.1,3.1,76,0.00,,,0.00,VWS V13.01,2013-07-26 09:42:00,
2013-07-26 04:47:00,69.4,61.9,30.01,ENE,65,2.2,3.1,77,0.00,,,0.00,VWS V13.01,2013-07-26 09:47:00,
2013-07-26 04:52:00,69.4,61.5,30.01,NE,49,2.7,3.1,76,0.00,,,0.00,VWS V13.01,2013-07-26 09:52:00,
2013-07-26 04:57:00,69.4,61.5,30.01,NE,47,2.7,3.6,76,0.00,,,0.00,VWS V13.01,2013-07-26 09:57:00,
2013-07-26 05:02:00,69.4,61.9,29.98,NE,50,2.2,2.2,77,0.00,,,0.00,VWS V13.01,2013-07-26 10:02:00,
2013-07-26 05:07:00,69.2,61.4,29.98,NE,56,3.1,3.1,76,0.00,,,0.00,VWS V13.01,2013-07-26 10:07:00,
2013-07-26 05:12:00,69.2,61.4,29.98,ENE,67,2.7,2.7,76,0.00,,,0.00,VWS V13.01,2013-07-26 10:12:00,
2013-07-26 05:17:00,69.2,61.0,29.98,NE,47,2.2,2.7,75,0.00,,,0.00,VWS V13.01,2013-07-26 10:17:00,
2013-07-26 05:22:00,69.2,61.4,29.98,East,84,0.0,0.0,76,0.00,,,0.00,VWS V13.01,2013-07-26 10:22:00,
2013-07-26 05:27:00,69.2,61.4,29.98,ENE,58,0.0,3.1,76,0.00,,,0.00,VWS V13.01,2013-07-26 10:27:00,
2013-07-26 05:32:00,69.1,61.2,30.01,NE,55,3.1,3.6,76,0.00,,,0.00,VWS V13.01,2013-07-26 10:32:00,
2013-07-26 05:37:00,69.1,60.8,30.01,NNE,18,2.2,3.1,75,0.00,,,0.00,VWS V13.01,2013-07-26 10:37:00,
2013-07-26 05:42:00,69.2,61.0,30.01,NE,45,2.7,3.1,75,0.00,,,0.00,VWS V13.01,2013-07-26 10:42:00,
2013-07-26 05:47:00,69.2,61.0,30.01,NE,35,3.1,3.6,75,0.00,,,0.00,VWS V13.01,2013-07-26 10:47:00,
2013-07-26 05:52:00,69.1,60.4,30.01,NE,40,3.1,3.1,74,0.00,,,0.00,VWS V13.01,2013-07-26 10:52:00,
2013-07-26 05:57:00,69.1,60.8,30.01,NE,48,4.0,4.0,75,0.00,,,0.00,VWS V13.01,2013-07-26 10:57:00,
2013-07-26 06:02:00,68.9,60.6,30.01,NE,41,3.1,3.6,75,0.00,,,0.00,VWS V13.01,2013-07-26 11:02:00,
2013-07-26 06:07:00,68.9,60.6,30.01,NE,46,2.2,2.7,75,0.00,,,0.00,VWS V13.01,2013-07-26 11:07:00,
2013-07-26 06:12:00,68.9,60.6,30.01,NE,40,3.1,3.6,75,0.00,,,0.00,VWS V13.01,2013-07-26 11:12:00,
2013-07-26 06:17:00,68.7,60.5,29.98,NE,47,4.0,4.0,75,0.00,,,0.00,VWS V13.01,2013-07-26 11:17:00,
2013-07-26 06:22:00,68.7,60.5,29.98,NE,42,2.7,4.0,75,0.00,,,0.00,VWS V13.01,2013-07-26 11:22:00,
2013-07-26 06:27:00,68.9,61.0,29.98,NE,42,3.1,3.1,76,0.00,,,0.00,VWS V13.01,2013-07-26 11:27:00,
2013-07-26 06:32:00,68.7,60.5,29.98,NNE,24,4.0,4.0,75,0.00,,,0.00,VWS V13.01,2013-07-26 11:32:00,
2013-07-26 06:37:00,68.7,60.5,29.98,NE,51,2.7,4.0,75,0.00,,,0.00,VWS V13.01,2013-07-26 11:37:00,
2013-07-26 06:42:00,68.7,60.5,29.98,NE,47,3.6,4.0,75,0.00,,,0.00,VWS V13.01,2013-07-26 11:42:00,
2013-07-26 06:47:00,68.7,60.1,30.01,NE,50,2.2,2.7,74,0.00,,,0.00,VWS V13.01,2013-07-26 11:47:00,
2013-07-26 06:52:00,68.7,60.1,30.01,ENE,64,0.0,0.0,74,0.00,,,0.00,VWS V13.01,2013-07-26 11:52:00,
2013-07-26 06:57:00,68.7,60.5,30.01,NNE,31,3.1,3.1,75,0.00,,,0.00,VWS V13.01,2013-07-26 11:57:00,
2013-07-26 07:02:00,68.7,60.5,30.01,ENE,71,2.7,3.1,75,0.00,,,0.00,VWS V13.01,2013-07-26 12:02:00,
2013-07-26 07:07:00,68.7,60.1,30.01,East,95,0.0,0.0,74,0.00,,,0.00,VWS V13.01,2013-07-26 12:07:00,
2013-07-26 07:12:00,68.7,60.1,30.01,ENE,63,2.2,2.2,74,0.00,,,0.00,VWS V13.01,2013-07-26 12:12:00,
2013-07-26 07:17:00,68.7,60.1,30.01,North,3,3.6,3.6,74,0.00,,,0.00,VWS V13.01,2013-07-26 12:17:00,
2013-07-26 07:22:00,68.7,60.1,30.01,NNE,25,0.0,3.1,74,0.00,,,0.00,VWS V13.01,2013-07-26 12:22:00,
2013-07-26 07:27:00,68.7,60.1,30.01,NE,40,2.7,3.1,74,0.00,,,0.00,VWS V13.01,2013-07-26 12:27:00,
2013-07-26 07:32:00,68.9,60.3,30.01,NNE,33,2.7,3.1,74,0.00,,,0.00,VWS V13.01,2013-07-26 12:32:00,
2013-07-26 07:37:00,68.9,60.6,30.01,ENE,60,2.7,2.7,75,0.00,,,0.00,VWS V13.01,2013-07-26 12:37:00,
2013-07-26 07:42:00,68.7,60.8,30.01,ENE,63,2.7,3.1,76,0.00,,,0.00,VWS V13.01,2013-07-26 12:42:00,
2013-07-26 07:47:00,68.7,60.5,30.01,East,86,2.7,3.1,75,0.00,,,0.00,VWS V13.01,2013-07-26 12:47:00,
2013-07-26 07:52:00,68.7,60.8,30.01,NE,39,0.0,2.7,76,0.00,,,0.00,VWS V13.01,2013-07-26 12:52:00,
2013-07-26 07:57:00,68.5,59.9,30.01,NNE,15,2.7,3.6,74,0.00,,,0.00,VWS V13.01,2013-07-26 12:57:00,
2013-07-26 08:02:00,68.7,60.5,30.01,ENE,75,0.0,0.0,75,0.00,,,0.00,VWS V13.01,2013-07-26 13:02:00,
2013-07-26 08:07:00,68.7,60.5,30.01,NNE,22,4.0,5.4,75,0.00,,,0.00,VWS V13.01,2013-07-26 13:07:00,
2013-07-26 08:12:00,68.7,60.5,30.01,ENE,60,2.2,3.1,75,0.00,,,0.00,VWS V13.01,2013-07-26 13:12:00,
2013-07-26 08:17:00,68.7,61.2,30.01,NE,54,0.0,2.2,77,0.00,,,0.00,VWS V13.01,2013-07-26 13:17:00,
2013-07-26 08:22:00,68.7,60.8,30.01,ENE,61,3.1,3.1,76,0.00,,,0.00,VWS V13.01,2013-07-26 13:22:00,
2013-07-26 08:27:00,68.5,60.7,30.01,ENE,65,3.6,3.6,76,0.00,,,0.00,VWS V13.01,2013-07-26 13:27:00,
2013-07-26 08:32:00,68.5,61.0,30.01,East,82,2.7,3.6,77,0.00,,,0.00,VWS V13.01,2013-07-26 13:32:00,
2013-07-26 08:37:00,68.3,61.2,30.01,NNE,17,5.4,5.4,78,0.00,,,0.00,VWS V13.01,2013-07-26 13:37:00,
2013-07-26 08:42:00,68.3,60.9,30.01,ENE,62,3.1,3.6,77,0.00,,,0.00,VWS V13.01,2013-07-26 13:42:00,
2013-07-26 08:47:00,68.3,61.2,30.01,NE,50,4.0,4.0,78,0.00,,,0.00,VWS V13.01,2013-07-26 13:47:00,
2013-07-26 08:52:00,68.3,61.2,30.01,ENE,77,3.6,3.6,78,0.00,,,0.00,VWS V13.01,2013-07-26 13:52:00,
2013-07-26 08:57:00,68.3,61.2,30.01,ENE,65,2.7,3.1,78,0.00,,,0.00,VWS V13.01,2013-07-26 13:57:00,
2013-07-26 09:02:00,68.3,61.6,30.01,ENE,65,2.7,2.7,79,0.00,,,0.00,VWS V13.01,2013-07-26 14:02:00,
2013-07-26 09:07:00,68.5,61.8,30.01,ENE,60,2.2,2.7,79,0.00,,,0.00,VWS V13.01,2013-07-26 14:07:00,
2013-07-26 09:12:00,68.5,61.8,30.01,ENE,69,2.2,2.7,79,0.00,,,0.00,VWS V13.01,2013-07-26 14:12:00,
2013-07-26 09:17:00,68.7,62.3,30.01,ENE,65,3.1,3.1,80,0.00,,,0.00,VWS V13.01,2013-07-26 14:17:00,
2013-07-26 09:22:00,68.7,61.9,30.01,NE,54,3.1,3.6,79,0.00,,,0.00,VWS V13.01,2013-07-26 14:22:00,
2013-07-26 09:27:00,68.5,61.8,30.01,NE,50,2.7,2.7,79,0.00,,,0.00,VWS V13.01,2013-07-26 14:27:00,
2013-07-26 09:32:00,68.7,61.6,30.01,ENE,59,2.2,3.1,78,0.00,,,0.00,VWS V13.01,2013-07-26 14:32:00,
2013-07-26 09:37:00,68.7,61.6,30.01,NNE,13,2.7,2.7,78,0.00,,,0.00,VWS V13.01,2013-07-26 14:37:00,
2013-07-26 09:42:00,68.9,61.8,30.01,ENE,62,2.7,2.7,78,0.00,,,0.00,VWS V13.01,2013-07-26 14:42:00,
2013-07-26 09:47:00,68.9,61.8,30.01,NE,49,0.0,0.0,78,0.00,,,0.00,VWS V13.01,2013-07-26 14:47:00,
2013-07-26 09:52:00,69.1,61.6,30.01,NE,50,2.7,3.1,77,0.00,,,0.00,VWS V13.01,2013-07-26 14:52:00,
2013-07-26 09:57:00,69.1,61.6,30.01,NE,47,2.7,4.0,77,0.00,,,0.00,VWS V13.01,2013-07-26 14:57:00,
2013-07-26 10:02:00,69.2,61.4,30.01,NNE,31,3.1,3.1,76,0.00,,,0.00,VWS V13.01,2013-07-26 15:02:00,
2013-07-26 10:07:00,69.2,61.0,30.01,NE,43,2.7,4.0,75,0.00,,,0.00,VWS V13.01,2013-07-26 15:07:00,
2013-07-26 10:12:00,69.2,61.4,30.01,NE,37,3.6,4.0,76,0.00,,,0.00,VWS V13.01,2013-07-26 15:12:00,
2013-07-26 10:17:00,69.2,61.0,30.01,North,7,2.7,3.1,75,0.00,,,0.00,VWS V13.01,2013-07-26 15:17:00,
2013-07-26 10:22:00,69.2,61.7,30.01,NE,49,2.7,3.1,77,0.00,,,0.00,VWS V13.01,2013-07-26 15:22:00,
2013-07-26 10:27:00,69.2,61.4,30.01,NNE,30,3.1,3.6,76,0.00,,,0.00,VWS V13.01,2013-07-26 15:27:00,
2013-07-26 10:32:00,69.2,61.4,30.01,NE,37,3.1,3.1,76,0.00,,,0.00,VWS V13.01,2013-07-26 15:32:00,
2013-07-26 10:37:00,69.1,61.9,30.01,NE,46,2.7,2.7,78,0.00,,,0.00,VWS V13.01,2013-07-26 15:37:00,
2013-07-26 10:42:00,68.9,62.5,30.01,NNW,329,2.7,2.7,80,0.00,,,0.00,VWS V13.01,2013-07-26 15:42:00,
2013-07-26 10:47:00,68.5,62.1,30.01,NNE,17,2.7,3.1,80,0.00,,,0.00,VWS V13.01,2013-07-26 15:47:00,
2013-07-26 10:52:00,68.3,62.6,30.01,NNW,329,0.0,0.0,82,0.04,,,0.04,VWS V13.01,2013-07-26 15:52:00,
2013-07-26 10:57:00,67.6,63.3,30.01,NE,38,2.7,2.7,86,0.20,,,0.20,VWS V13.01,2013-07-26 15:57:00,
2013-07-26 11:02:00,67.1,63.4,30.04,NW,312,3.1,3.1,88,0.31,,,0.31,VWS V13.01,2013-07-26 16:02:00,
2013-07-26 11:07:00,66.5,63.8,30.04,NW,309,0.0,2.7,91,0.43,,,0.43,VWS V13.01,2013-07-26 16:07:00,
2013-07-26 11:12:00,66.2,64.4,30.04,WNW,302,2.2,2.2,94,0.47,,,0.47,VWS V13.01,2013-07-26 16:12:00,
2013-07-26 11:17:00,65.8,64.3,30.04,NNW,340,2.2,2.7,95,0.47,,,0.47,VWS V13.01,2013-07-26 16:17:00,
2013-07-26 11:22:00,65.6,64.5,30.04,NNW,341,0.0,0.0,96,0.51,,,0.51,VWS V13.01,2013-07-26 16:22:00,
2013-07-26 11:27:00,65.6,64.8,30.04,NNW,341,0.0,0.0,97,0.51,,,0.51,VWS V13.01,2013-07-26 16:27:00,
2013-07-26 11:32:00,65.5,65.2,30.04,NE,39,2.7,2.7,99,0.51,,,0.51,VWS V13.01,2013-07-26 16:32:00,
2013-07-26 11:37:00,65.5,65.2,30.04,NE,39,0.0,0.0,99,0.55,,,0.55,VWS V13.01,2013-07-26 16:37:00,
2013-07-26 11:42:00,65.6,65.6,30.04,North,4,0.0,0.0,100,0.55,,,0.55,VWS V13.01,2013-07-26 16:42:00,
2013-07-26 11:47:00,66.0,66.0,30.04,NNE,13,0.0,0.0,100,0.55,,,0.55,VWS V13.01,2013-07-26 16:47:00,
2013-07-26 11:52:00,66.2,66.2,30.04,NNE,33,0.0,0.0,100,0.51,,,0.55,VWS V13.01,2013-07-26 16:52:00,
2013-07-26 11:57:00,66.2,66.2,30.04,NNE,27,0.0,0.0,100,0.43,,,0.59,VWS V13.01,2013-07-26 16:57:00,
2013-07-26 12:02:00,66.5,66.5,30.04,NNE,33,0.0,0.0,100,0.31,,,0.59,VWS V13.01,2013-07-26 17:02:00,
2013-07-26 12:07:00,66.7,66.7,30.04,North,358,0.0,2.7,100,0.16,,,0.59,VWS V13.01,2013-07-26 17:07:00,
2013-07-26 12:12:00,66.7,66.7,30.04,North,11,3.6,3.6,100,0.12,,,0.59,VWS V13.01,2013-07-26 17:12:00,
2013-07-26 12:17:00,66.5,66.5,30.04,NNW,346,3.6,3.6,100,0.12,,,0.59,VWS V13.01,2013-07-26 17:17:00,
2013-07-26 12:22:00,66.5,66.5,30.04,NNE,26,3.1,4.0,100,0.08,,,0.59,VWS V13.01,2013-07-26 17:22:00,
2013-07-26 12:27:00,66.7,66.7,30.04,NNE,22,0.0,0.0,100,0.08,,,0.59,VWS V13.01,2013-07-26 17:27:00,
2013-07-26 12:32:00,66.9,66.9,30.04,North,9,0.0,0.0,100,0.08,,,0.59,VWS V13.01,2013-07-26 17:32:00,
2013-07-26 12:37:00,67.1,67.1,30.04,North,5,3.1,3.1,100,0.04,,,0.59,VWS V13.01,2013-07-26 17:37:00,
2013-07-26 12:42:00,66.7,66.7,30.04,NNE,22,3.1,3.1,100,0.08,,,0.63,VWS V13.01,2013-07-26 17:42:00,
2013-07-26 12:47:00,66.7,66.7,30.04,North,11,4.0,4.9,100,0.08,,,0.63,VWS V13.01,2013-07-26 17:47:00,
2013-07-26 12:52:00,67.1,67.1,30.04,North,9,2.7,3.1,100,0.08,,,0.63,VWS V13.01,2013-07-26 17:52:00,
2013-07-26 12:57:00,67.3,67.3,30.04,NE,52,3.6,3.6,100,0.04,,,0.63,VWS V13.01,2013-07-26 17:57:00,
2013-07-26 13:02:00,67.1,67.1,30.04,NNE,14,2.7,3.1,100,0.04,,,0.63,VWS V13.01,2013-07-26 18:02:00,
2013-07-26 13:07:00,66.9,66.9,30.04,NE,39,3.1,5.4,100,0.04,,,0.63,VWS V13.01,2013-07-26 18:07:00,
2013-07-26 13:12:00,67.1,67.1,30.04,ENE,57,2.7,3.1,100,0.04,,,0.63,VWS V13.01,2013-07-26 18:12:00,
2013-07-26 13:17:00,67.1,67.1,30.01,NE,41,3.1,3.1,100,0.04,,,0.63,VWS V13.01,2013-07-26 18:17:00,
2013-07-26 13:22:00,67.3,67.3,30.01,North,7,3.6,3.6,100,0.04,,,0.63,VWS V13.01,2013-07-26 18:22:00,
2013-07-26 13:27:00,67.3,67.3,30.01,NE,38,2.7,2.7,100,0.04,,,0.63,VWS V13.01,2013-07-26 18:27:00,
2013-07-26 13:32:00,67.3,67.3,30.01,NE,46,2.7,3.6,100,0.04,,,0.63,VWS V13.01,2013-07-26 18:32:00,
2013-07-26 13:37:00,67.4,67.4,30.01,East,95,2.7,5.4,100,0.04,,,0.63,VWS V13.01,2013-07-26 18:37:00,
2013-07-26 13:42:00,67.4,67.4,30.01,ENE,63,2.7,3.6,100,0.00,,,0.63,VWS V13.01,2013-07-26 18:42:00,
2013-07-26 13:47:00,67.6,67.6,30.01,ENE,63,3.1,3.1,100,0.00,,,0.63,VWS V13.01,2013-07-26 18:47:00,
2013-07-26 13:52:00,68.0,68.0,30.01,NE,55,2.7,5.4,100,0.00,,,0.63,VWS V13.01,2013-07-26 18:52:00,
2013-07-26 13:57:00,67.8,67.8,30.01,ENE,58,2.7,3.1,100,0.00,,,0.63,VWS V13.01,2013-07-26 18:57:00,
2013-07-26 14:02:00,67.8,67.8,30.01,NE,55,3.1,4.9,100,0.00,,,0.63,VWS V13.01,2013-07-26 19:02:00,
2013-07-26 14:07:00,67.8,67.8,30.01,NE,49,2.2,4.0,100,0.00,,,0.63,VWS V13.01,2013-07-26 19:07:00,
2013-07-26 14:12:00,67.8,67.8,30.01,North,356,2.7,4.0,100,0.00,,,0.63,VWS V13.01,2013-07-26 19:12:00,
2013-07-26 14:17:00,67.8,67.8,30.01,NE,45,4.0,4.5,100,0.00,,,0.63,VWS V13.01,2013-07-26 19:17:00,
2013-07-26 14:22:00,68.0,68.0,30.01,ENE,72,2.7,3.6,100,0.00,,,0.63,VWS V13.01,2013-07-26 19:22:00,
2013-07-26 14:27:00,68.0,68.0,30.01,ENE,74,2.7,3.1,100,0.00,,,0.63,VWS V13.01,2013-07-26 19:27:00,
2013-07-26 14:32:00,68.0,68.0,30.01,East,97,2.7,2.7,100,0.00,,,0.63,VWS V13.01,2013-07-26 19:32:00,
2013-07-26 14:37:00,68.2,68.2,30.01,ENE,67,0.0,0.0,100,0.00,,,0.63,VWS V13.01,2013-07-26 19:37:00,
2013-07-26 14:42:00,68.7,68.7,30.01,North,1,2.7,3.6,100,0.04,,,0.67,VWS V13.01,2013-07-26 19:42:00,
2013-07-26 14:47:00,68.9,68.9,30.01,NE,47,2.7,3.1,100,0.04,,,0.67,VWS V13.01,2013-07-26 19:47:00,
2013-07-26 14:52:00,69.2,69.2,30.01,NNE,30,0.0,3.6,100,0.04,,,0.67,VWS V13.01,2013-07-26 19:52:00,
2013-07-26 14:57:00,68.9,68.9,30.01,ENE,70,2.7,2.7,100,0.04,,,0.67,VWS V13.01,2013-07-26 19:57:00,
2013-07-26 15:02:00,68.7,68.7,29.98,ENE,58,3.1,3.6,100,0.04,,,0.67,VWS V13.01,2013-07-26 20:02:00,
2013-07-26 15:07:00,68.7,68.7,29.98,East,84,4.0,4.0,100,0.04,,,0.67,VWS V13.01,2013-07-26 20:07:00,
2013-07-26 15:12:00,68.7,68.4,29.98,ENE,63,4.9,4.9,99,0.04,,,0.67,VWS V13.01,2013-07-26 20:12:00,
2013-07-26 15:17:00,68.5,67.9,29.98,NE,45,5.4,5.4,98,0.04,,,0.67,VWS V13.01,2013-07-26 20:17:00,
2013-07-26 15:22:00,68.3,67.2,29.98,ENE,76,3.1,5.8,96,0.04,,,0.67,VWS V13.01,2013-07-26 20:22:00,
2013-07-26 15:27:00,68.5,67.0,29.98,ENE,67,0.0,3.1,95,0.04,,,0.67,VWS V13.01,2013-07-26 20:27:00,
2013-07-26 15:32:00,68.5,67.0,29.98,ENE,76,2.7,2.7,95,0.04,,,0.67,VWS V13.01,2013-07-26 20:32:00,
2013-07-26 15:37:00,68.3,65.9,29.98,North,8,2.7,4.0,92,0.04,,,0.67,VWS V13.01,2013-07-26 20:37:00,
2013-07-26 15:42:00,68.3,65.6,29.98,NE,51,0.0,3.1,91,0.00,,,0.67,VWS V13.01,2013-07-26 20:42:00,
2013-07-26 15:47:00,68.3,65.6,29.98,ENE,64,4.0,5.4,91,0.00,,,0.67,VWS V13.01,2013-07-26 20:47:00,
2013-07-26 15:52:00,68.5,66.1,29.98,North,359,3.6,3.6,92,0.00,,,0.67,VWS V13.01,2013-07-26 20:52:00,
2013-07-26 15:57:00,68.5,65.8,29.98,NE,47,2.2,2.7,91,0.00,,,0.67,VWS V13.01,2013-07-26 20:57:00,
2013-07-26 16:02:00,68.7,65.3,29.98,NE,35,3.1,3.1,89,0.00,,,0.67,VWS V13.01,2013-07-26 21:02:00,
2013-07-26 16:07:00,68.7,65.7,29.98,NE,48,2.7,3.6,90,0.00,,,0.67,VWS V13.01,2013-07-26 21:07:00,
2013-07-26 16:12:00,68.7,65.3,29.98,NE,51,3.1,3.1,89,0.00,,,0.67,VWS V13.01,2013-07-26 21:12:00,
2013-07-26 16:17:00,68.9,65.5,29.98,ENE,68,2.7,3.6,89,0.00,,,0.67,VWS V13.01,2013-07-26 21:17:00,
2013-07-26 16:22:00,68.9,65.8,29.98,NNE,19,3.1,3.1,90,0.00,,,0.67,VWS V13.01,2013-07-26 21:22:00,
2013-07-26 16:27:00,68.7,66.0,29.98,NNE,31,3.6,3.6,91,0.00,,,0.67,VWS V13.01,2013-07-26 21:27:00,
2013-07-26 16:32:00,68.5,65.8,29.98,NE,43,4.0,5.8,91,0.00,,,0.67,VWS V13.01,2013-07-26 21:32:00,
2013-07-26 16:37:00,68.5,66.1,29.98,North,10,2.2,4.0,92,0.00,,,0.67,VWS V13.01,2013-07-26 21:37:00,
2013-07-26 16:42:00,68.7,66.6,29.98,NNE,30,0.0,3.1,93,0.00,,,0.67,VWS V13.01,2013-07-26 21:42:00,
2013-07-26 16:47:00,68.5,66.4,29.98,NE,42,2.2,2.7,93,0.00,,,0.67,VWS V13.01,2013-07-26 21:47:00,
2013-07-26 16:52:00,68.5,65.8,29.98,NE,55,0.0,0.0,91,0.00,,,0.67,VWS V13.01,2013-07-26 21:52:00,
2013-07-26 16:57:00,68.7,66.3,29.98,NE,49,0.0,0.0,92,0.00,,,0.67,VWS V13.01,2013-07-26 21:57:00,
2013-07-26 17:02:00,68.7,66.6,29.98,ENE,71,0.0,3.6,93,0.00,,,0.67,VWS V13.01,2013-07-26 22:02:00,
2013-07-26 17:07:00,68.7,66.6,29.98,NNE,25,3.1,3.1,93,0.00,,,0.67,VWS V13.01,2013-07-26 22:07:00,
2013-07-26 17:12:00,68.7,66.3,29.98,ENE,58,2.2,2.2,92,0.00,,,0.67,VWS V13.01,2013-07-26 22:12:00,
2013-07-26 17:17:00,68.7,66.6,29.98,ENE,74,2.7,2.7,93,0.00,,,0.67,VWS V13.01,2013-07-26 22:17:00,
2013-07-26 17:22:00,68.5,66.4,29.98,NE,55,3.1,3.6,93,0.00,,,0.67,VWS V13.01,2013-07-26 22:22:00,
2013-07-26 17:27:00,68.7,66.9,29.98,NE,45,3.1,3.1,94,0.00,,,0.67,VWS V13.01,2013-07-26 22:27:00,
2013-07-26 17:32:00,68.5,66.7,29.98,ENE,69,0.0,0.0,94,0.00,,,0.67,VWS V13.01,2013-07-26 22:32:00,
2013-07-26 17:37:00,68.5,66.7,29.98,East,87,2.2,2.7,94,0.00,,,0.67,VWS V13.01,2013-07-26 22:37:00,
2013-07-26 17:42:00,68.5,66.4,29.98,ENE,68,2.7,4.0,93,0.00,,,0.67,VWS V13.01,2013-07-26 22:42:00,
2013-07-26 17:47:00,68.5,66.4,29.98,South,183,0.0,0.0,93,0.00,,,0.67,VWS V13.01,2013-07-26 22:47:00,
2013-07-26 17:52:00,68.5,66.4,29.98,ESE,105,2.2,2.2,93,0.00,,,0.67,VWS V13.01,2013-07-26 22:52:00,
2013-07-26 17:57:00,68.5,66.4,29.98,ESE,105,0.0,0.0,93,0.00,,,0.67,VWS V13.01,2013-07-26 22:57:00,
2013-07-26 18:02:00,68.5,66.4,29.95,SE,125,4.0,4.0,93,0.00,,,0.67,VWS V13.01,2013-07-26 23:02:00,
2013-07-26 18:07:00,68.3,65.9,29.95,East,87,2.2,2.2,92,0.00,,,0.67,VWS V13.01,2013-07-26 23:07:00,
2013-07-26 18:12:00,68.2,65.8,29.95,East,92,0.0,0.0,92,0.00,,,0.67,VWS V13.01,2013-07-26 23:12:00,
2013-07-26 18:17:00,68.2,65.4,29.95,NE,36,2.2,2.2,91,0.00,,,0.67,VWS V13.01,2013-07-26 23:17:00,
2013-07-26 18:22:00,68.2,65.4,29.95,NE,37,0.0,0.0,91,0.00,,,0.67,VWS V13.01,2013-07-26 23:22:00,
2013-07-26 18:27:00,68.2,65.8,29.95,ENE,70,0.0,0.0,92,0.00,,,0.67,VWS V13.01,2013-07-26 23:27:00,
2013-07-26 18:32:00,68.2,65.8,29.95,ESE,104,2.7,3.1,92,0.04,,,0.71,VWS V13.01,2013-07-26 23:32:00,
2013-07-26 18:37:00,68.0,65.9,29.95,East,97,3.1,3.1,93,0.04,,,0.71,VWS V13.01,2013-07-26 23:37:00,
2013-07-26 18:42:00,67.8,65.7,29.95,ENE,63,2.2,2.7,93,0.04,,,0.71,VWS V13.01,2013-07-26 23:42:00,
2013-07-26 18:47:00,67.6,65.8,29.95,East,90,2.7,4.0,94,0.04,,,0.71,VWS V13.01,2013-07-26 23:47:00,
2013-07-26 18:52:00,67.6,66.1,29.95,SE,127,2.2,4.0,95,0.04,,,0.71,VWS V13.01,2013-07-26 23:52:00,
2013-07-26 18:57:00,67.4,66.3,29.95,East,94,2.7,4.0,96,0.04,,,0.71,VWS V13.01,2013-07-26 23:57:00,
2013-07-26 19:02:00,67.4,66.6,29.95,NNW,328,0.0,0.0,97,0.04,,,0.71,VWS V13.01,2013-07-27 00:02:00,
2013-07-26 19:07:00,67.4,66.9,29.95,North,349,0.0,3.1,98,0.04,,,0.71,VWS V13.01,2013-07-27 00:07:00,
2013-07-26 19:12:00,67.6,67.3,29.95,NNE,21,2.2,3.6,99,0.04,,,0.71,VWS V13.01,2013-07-27 00:12:00,
2013-07-26 19:17:00,67.4,67.2,29.95,NNE,24,2.7,3.6,99,0.04,,,0.71,VWS V13.01,2013-07-27 00:17:00,
2013-07-26 19:22:00,67.4,67.2,29.95,NE,47,0.0,0.0,99,0.04,,,0.71,VWS V13.01,2013-07-27 00:22:00,
2013-07-26 19:27:00,67.6,67.6,29.95,NE,42,3.1,3.6,100,0.04,,,0.71,VWS V13.01,2013-07-27 00:27:00,
2013-07-26 19:32:00,67.4,67.4,29.95,North,10,0.0,5.8,100,0.00,,,0.71,VWS V13.01,2013-07-27 00:32:00,
2013-07-26 19:37:00,67.4,67.2,29.95,North,355,0.0,0.0,99,0.00,,,0.71,VWS V13.01,2013-07-27 00:37:00,
2013-07-26 19:42:00,67.4,67.2,29.95,North,10,0.0,2.7,99,0.00,,,0.71,VWS V13.01,2013-07-27 00:42:00,
2013-07-26 19:47:00,67.4,67.2,29.95,NE,39,3.1,5.4,99,0.00,,,0.71,VWS V13.01,2013-07-27 00:47:00,
2013-07-26 19:52:00,67.4,66.6,29.95,NNE,12,2.2,2.7,97,0.00,,,0.71,VWS V13.01,2013-07-27 00:52:00,
2013-07-26 19:57:00,67.4,66.3,29.95,ENE,62,3.1,3.6,96,0.00,,,0.71,VWS V13.01,2013-07-27 00:57:00,
2013-07-26 20:02:00,67.4,66.3,29.92,NNE,29,3.1,3.1,96,0.00,,,0.71,VWS V13.01,2013-07-27 01:02:00,
2013-07-26 20:07:00,67.3,66.1,29.92,WNW,290,5.8,5.8,96,0.00,,,0.71,VWS V13.01,2013-07-27 01:07:00,
2013-07-26 20:12:00,67.3,66.1,29.92,North,10,2.7,3.6,96,0.00,,,0.71,VWS V13.01,2013-07-27 01:12:00,
2013-07-26 20:17:00,67.3,65.8,29.95,NE,50,2.7,2.7,95,0.00,,,0.71,VWS V13.01,2013-07-27 01:17:00,
2013-07-26 20:22:00,67.3,66.1,29.95,NE,55,0.0,2.7,96,0.00,,,0.71,VWS V13.01,2013-07-27 01:22:00,
2013-07-26 20:27:00,67.3,66.4,29.95,North,9,0.0,0.0,97,0.00,,,0.71,VWS V13.01,2013-07-27 01:27:00,
2013-07-26 20:32:00,67.3,66.4,29.95,NNE,25,3.6,4.9,97,0.00,,,0.71,VWS V13.01,2013-07-27 01:32:00,
2013-07-26 20:37:00,67.1,66.2,29.95,NE,36,0.0,0.0,97,0.00,,,0.71,VWS V13.01,2013-07-27 01:37:00,
2013-07-26 20:42:00,67.1,66.2,29.95,NE,36,0.0,0.0,97,0.00,,,0.71,VWS V13.01,2013-07-27 01:42:00,
2013-07-26 20:47:00,66.9,66.0,29.95,NE,43,0.0,0.0,97,0.00,,,0.71,VWS V13.01,2013-07-27 01:47:00,
2013-07-26 20:52:00,66.9,66.0,29.95,NE,43,0.0,0.0,97,0.00,,,0.71,VWS V13.01,2013-07-27 01:52:00,
2013-07-26 20:57:00,66.7,65.8,29.95,NE,43,0.0,0.0,97,0.00,,,0.71,VWS V13.01,2013-07-27 01:57:00,
2013-07-26 21:02:00,66.7,65.8,29.95,ENE,63,0.0,0.0,97,0.00,,,0.71,VWS V13.01,2013-07-27 02:02:00,
2013-07-26 21:07:00,66.5,65.7,29.95,ENE,64,0.0,0.0,97,0.00,,,0.71,VWS V13.01,2013-07-27 02:07:00,
2013-07-26 21:12:00,66.5,66.0,29.95,East,92,0.0,0.0,98,0.00,,,0.71,VWS V13.01,2013-07-27 02:12:00,
2013-07-26 21:17:00,66.5,66.0,29.95,East,92,0.0,0.0,98,0.00,,,0.71,VWS V13.01,2013-07-27 02:17:00,
2013-07-26 21:22:00,66.5,66.0,29.95,East,92,0.0,0.0,98,0.00,,,0.71,VWS V13.01,2013-07-27 02:22:00,
2013-07-26 21:27:00,66.5,66.0,29.95,East,92,0.0,0.0,98,0.00,,,0.71,VWS V13.01,2013-07-27 02:27:00,
2013-07-26 21:32:00,66.5,66.0,29.95,East,92,0.0,0.0,98,0.00,,,0.71,VWS V13.01,2013-07-27 02:32:00,
2013-07-26 21:37:00,66.5,66.2,29.95,East,91,0.0,0.0,99,0.00,,,0.71,VWS V13.01,2013-07-27 02:37:00,
2013-07-26 21:42:00,66.5,66.2,29.95,East,93,0.0,0.0,99,0.00,,,0.71,VWS V13.01,2013-07-27 02:42:00,
2013-07-26 21:47:00,66.4,66.1,29.95,East,91,0.0,0.0,99,0.00,,,0.71,VWS V13.01,2013-07-27 02:47:00,
2013-07-26 21:52:00,66.4,66.1,29.95,ENE,77,0.0,0.0,99,0.00,,,0.71,VWS V13.01,2013-07-27 02:52:00,
2013-07-26 21:57:00,66.4,66.1,29.95,ENE,77,0.0,0.0,99,0.00,,,0.71,VWS V13.01,2013-07-27 02:57:00,
2013-07-26 22:02:00,66.4,66.1,29.95,ENE,73,0.0,0.0,99,0.00,,,0.71,VWS V13.01,2013-07-27 03:02:00,
2013-07-26 22:07:00,66.2,65.9,29.95,NE,56,0.0,0.0,99,0.00,,,0.71,VWS V13.01,2013-07-27 03:07:00,
2013-07-26 22:12:00,66.2,65.6,29.95,NE,55,0.0,0.0,98,0.00,,,0.71,VWS V13.01,2013-07-27 03:12:00,
2013-07-26 22:17:00,66.0,65.4,29.98,ENE,73,0.0,2.7,98,0.00,,,0.71,VWS V13.01,2013-07-27 03:17:00,
2013-07-26 22:22:00,66.0,65.1,29.98,NNE,28,2.7,2.7,97,0.00,,,0.71,VWS V13.01,2013-07-27 03:22:00,
2013-07-26 22:27:00,66.0,65.1,29.98,ENE,76,2.7,2.7,97,0.00,,,0.71,VWS V13.01,2013-07-27 03:27:00,
2013-07-26 22:32:00,66.0,65.1,29.98,NE,50,0.0,0.0,97,0.00,,,0.71,VWS V13.01,2013-07-27 03:32:00,
2013-07-26 22:37:00,65.8,64.9,29.98,ENE,62,0.0,0.0,97,0.00,,,0.71,VWS V13.01,2013-07-27 03:37:00,
2013-07-26 22:42:00,65.8,64.9,29.98,ENE,73,0.0,3.1,97,0.00,,,0.71,VWS V13.01,2013-07-27 03:42:00,
2013-07-26 22:47:00,65.8,64.9,29.98,ENE,77,0.0,0.0,97,0.00,,,0.71,VWS V13.01,2013-07-27 03:47:00,
2013-07-26 22:52:00,65.6,64.5,29.98,ENE,67,0.0,0.0,96,0.00,,,0.71,VWS V13.01,2013-07-27 03:52:00,
2013-07-26 22:57:00,65.6,64.5,29.98,NE,53,0.0,0.0,96,0.00,,,0.71,VWS V13.01,2013-07-27 03:57:00,
2013-07-26 23:01:00,65.6,64.2,29.98,ENE,65,0.0,0.0,95,0.00,,,0.71,VWS V13.01,2013-07-27 04:01:00,
2013-07-26 23:06:00,65.6,64.2,29.98,NE,51,0.0,0.0,95,0.00,,,0.71,VWS V13.01,2013-07-27 04:06:00,
2013-07-26 23:11:00,65.6,64.2,29.98,NNE,14,0.0,0.0,95,0.00,,,0.71,VWS V13.01,2013-07-27 04:11:00,
2013-07-26 23:16:00,65.6,64.2,29.98,NNE,14,0.0,0.0,95,0.00,,,0.71,VWS V13.01,2013-07-27 04:16:00,
2013-07-26 23:21:00,65.6,64.2,29.98,NNE,14,0.0,0.0,95,0.00,,,0.71,VWS V13.01,2013-07-27 04:21:00,
2013-07-26 23:26:00,65.6,64.2,29.98,NNE,14,0.0,0.0,95,0.00,,,0.71,VWS V13.01,2013-07-27 04:26:00,
2013-07-26 23:31:00,65.6,64.2,29.98,NNE,14,0.0,0.0,95,0.00,,,0.71,VWS V13.01,2013-07-27 04:31:00,
2013-07-26 23:36:00,65.6,64.5,29.98,NNE,14,0.0,0.0,96,0.00,,,0.71,VWS V13.01,2013-07-27 04:36:00,
2013-07-26 23:41:00,65.6,64.5,29.98,NNE,14,0.0,0.0,96,0.00,,,0.71,VWS V13.01,2013-07-27 04:41:00,
2013-07-26 23:46:00,65.5,64.3,29.98,NNE,21,0.0,0.0,96,0.00,,,0.71,VWS V13.01,2013-07-27 04:46:00,
2013-07-26 23:51:00,65.5,64.0,29.98,NNE,21,0.0,0.0,95,0.00,,,0.71,VWS V13.01,2013-07-27 04:51:00,
2013-07-26 23:56:00,65.3,63.8,29.98,NNE,21,0.0,0.0,95,0.00,,,0.71,VWS V13.01,2013-07-27 04:56:00,